Time;durP1;ratioP1;P1;durP2;ratioP2;P2;SDS_P1;SDS_P2;PMS_P1;PMS_P2;Temp;Humidity;BMP_temperature;BMP_pressure;BME280_temperature;BME280_humidity;BME280_pressure;Samples;Min_cycle;Max_cycle;Signal;HPM_P1;HPM_P2
2022/05/03 00:02:07;;;;;;;4.40;2.70;;;5.80;99.90;;;;;;5095544;28;20049;-78
2022/05/03 00:05:03;;;;;;;3.72;2.30;;;5.80;99.90;;;;;;5071775;28;20032;-79
2022/05/03 00:07:35;;;;;;;4.70;3.13;;;5.60;99.90;;;;;;5085678;28;20053;-79
2022/05/03 00:10:12;;;;;;;3.92;3.10;;;5.30;99.90;;;;;;5063192;28;20045;-79
2022/05/03 00:12:47;;;;;;;4.78;3.22;;;5.20;99.90;;;;;;5089399;28;20107;-78
2022/05/03 00:15:18;;;;;;;4.20;2.60;;;5.10;99.90;;;;;;5082350;28;20148;-79
2022/05/03 00:17:45;;;;;;;5.80;2.90;;;5.10;99.90;;;;;;5099696;28;20538;-79
2022/05/03 00:20:11;;;;;;;6.90;3.08;;;5.00;99.90;;;;;;5096182;28;20044;-79
2022/05/03 00:22:38;;;;;;;4.93;2.70;;;4.80;99.90;;;;;;5097624;28;20044;-80
2022/05/03 00:25:04;;;;;;;4.90;2.95;;;4.70;99.90;;;;;;5081430;28;20135;-81
2022/05/03 00:27:30;;;;;;;4.78;2.88;;;4.70;99.90;;;;;;5070068;28;20054;-80
2022/05/03 00:29:58;;;;;;;5.50;3.05;;;4.70;99.90;;;;;;5084398;28;20056;-80
2022/05/03 00:32:28;;;;;;;6.30;3.38;;;4.60;99.90;;;;;;5049932;28;20040;-81
2022/05/03 00:34:58;;;;;;;5.80;3.10;;;4.60;99.90;;;;;;5061129;28;20052;-80
2022/05/03 00:37:24;;;;;;;5.60;3.20;;;4.60;99.90;;;;;;5083658;28;20056;-80
2022/05/03 00:39:50;;;;;;;4.78;2.70;;;4.50;99.90;;;;;;5062979;28;20054;-80
2022/05/03 00:42:29;;;;;;;5.57;3.78;;;4.60;99.90;;;;;;5081523;28;20123;-79
2022/05/03 00:45:02;;;;;;;5.03;3.00;;;4.60;99.90;;;;;;5062369;28;20044;-80
2022/05/03 00:47:53;;;;;;;5.88;3.40;;;4.60;99.90;;;;;;5064192;28;20127;-81
2022/05/03 00:50:32;;;;;;;4.43;2.78;;;4.50;99.90;;;;;;5090363;28;20107;-81
2022/05/03 00:53:23;;;;;;;4.43;2.78;;;4.40;99.90;;;;;;5078937;28;20055;-81
2022/05/03 00:55:51;;;;;;;5.55;3.58;;;4.30;99.90;;;;;;5082375;28;20040;-81
2022/05/03 00:58:23;;;;;;;6.25;3.78;;;4.10;99.90;;;;;;5096463;28;20044;-81
2022/05/03 01:01:03;;;;;;;5.38;3.38;;;4.10;99.90;;;;;;5069325;28;20047;-81
2022/05/03 01:03:43;;;;;;;6.03;3.40;;;4.00;99.90;;;;;;5066411;28;20048;-81
2022/05/03 01:06:37;;;;;;;4.78;3.00;;;3.80;99.90;;;;;;5063865;28;20044;-80
2022/05/03 01:09:05;;;;;;;6.32;2.90;;;3.80;99.90;;;;;;5097410;28;20095;-79
2022/05/03 01:11:54;;;;;;;5.28;2.95;;;3.80;99.90;;;;;;5054642;28;20523;-78
2022/05/03 01:14:28;;;;;;;8.68;3.45;;;3.90;99.90;;;;;;5076084;28;20052;-78
2022/05/03 01:16:58;;;;;;;4.75;3.25;;;4.10;99.90;;;;;;5044268;28;20072;-79
2022/05/03 01:19:50;;;;;;;6.70;3.58;;;4.20;99.90;;;;;;5060499;28;20054;-79
2022/05/03 01:22:54;;;;;;;5.65;3.63;;;4.20;99.90;;;;;;5079420;28;20435;-79
2022/05/03 01:25:33;;;;;;;5.95;3.42;;;4.30;99.90;;;;;;5074981;28;20044;-78
2022/05/03 01:28:18;;;;;;;6.75;3.40;;;4.30;99.90;;;;;;5058535;28;20054;-79
2022/05/03 01:30:47;;;;;;;5.22;3.42;;;4.40;99.90;;;;;;5064473;28;20032;-78
2022/05/03 01:33:17;;;;;;;6.07;3.85;;;4.40;99.90;;;;;;5080640;28;20084;-78
2022/05/03 01:35:46;;;;;;;5.78;3.47;;;4.40;99.90;;;;;;5079681;28;20081;-79
2022/05/03 01:38:33;;;;;;;5.82;3.10;;;4.40;99.90;;;;;;5087260;28;20040;-79
2022/05/03 01:41:16;;;;;;;5.50;2.97;;;4.40;99.90;;;;;;5078738;28;20044;-79
2022/05/03 01:44:03;;;;;;;7.32;3.35;;;4.30;99.90;;;;;;5065559;28;20040;-79
2022/05/03 01:46:34;;;;;;;7.25;3.38;;;4.40;99.90;;;;;;5088254;28;20044;-80
2022/05/03 01:52:19;;;;;;;5.32;3.42;;;4.50;99.90;;;;;;5088632;28;20048;-78
2022/05/03 01:54:44;;;;;;;6.78;3.78;;;4.60;99.90;;;;;;5100428;28;20126;-79
2022/05/03 01:57:34;;;;;;;5.40;3.40;;;4.60;99.90;;;;;;5098343;28;20392;-79
2022/05/03 02:00:06;;;;;;;4.70;3.25;;;4.50;99.90;;;;;;5067735;28;20059;-80
2022/05/03 02:02:53;;;;;;;6.10;3.80;;;4.50;99.90;;;;;;5079660;28;20112;-79
2022/05/03 02:05:27;;;;;;;6.20;4.10;;;4.40;99.90;;;;;;5063973;28;20032;-80
2022/05/03 02:07:55;;;;;;;5.30;3.65;;;4.40;99.90;;;;;;5079392;28;20032;-80
2022/05/03 02:10:36;;;;;;;5.13;3.50;;;4.30;99.90;;;;;;5077485;28;20086;-80
2022/05/03 02:13:28;;;;;;;6.30;3.58;;;4.00;99.90;;;;;;5083494;28;20051;-81
2022/05/03 02:16:03;;;;;;;6.63;3.45;;;3.70;99.90;;;;;;5099712;28;20062;-80
2022/05/03 02:18:44;;;;;;;6.90;3.63;;;3.40;99.90;;;;;;5091673;28;20048;-80
2022/05/03 02:21:17;;;;;;;7.18;3.55;;;3.60;99.90;;;;;;5099777;28;20052;-80
2022/05/03 02:23:49;;;;;;;5.78;3.33;;;3.30;99.90;;;;;;5078490;28;20069;-80
2022/05/03 02:26:18;;;;;;;6.18;3.53;;;3.30;99.90;;;;;;5078920;28;20051;-81
2022/05/03 02:29:14;;;;;;;5.43;3.50;;;3.30;99.90;;;;;;5081754;28;20048;-81
2022/05/03 02:31:43;;;;;;;5.88;3.50;;;3.20;99.90;;;;;;5087632;28;20056;-81
2022/05/03 02:34:30;;;;;;;6.85;3.83;;;3.70;99.90;;;;;;5079153;28;20044;-81
2022/05/03 02:37:10;;;;;;;5.90;3.38;;;3.00;99.90;;;;;;5055559;28;20128;-80
2022/05/03 02:39:41;;;;;;;6.75;3.30;;;3.00;99.90;;;;;;5062069;28;20048;-80
2022/05/03 02:42:09;;;;;;;6.75;3.75;;;3.20;99.90;;;;;;5079254;28;20080;-80
2022/05/03 02:44:38;;;;;;;6.53;3.72;;;3.30;99.90;;;;;;5076754;28;20070;-80
2022/05/03 02:47:17;;;;;;;5.97;3.30;;;3.60;99.90;;;;;;5079029;28;20112;-81
2022/05/03 02:50:03;;;;;;;8.65;4.00;;;3.30;99.90;;;;;;5070203;28;20048;-80
2022/05/03 02:52:38;;;;;;;6.15;3.38;;;3.20;99.90;;;;;;5060658;28;20415;-80
2022/05/03 02:55:25;;;;;;;5.80;3.55;;;3.10;99.90;;;;;;5078859;28;20076;-80
2022/05/03 02:57:54;;;;;;;6.78;4.07;;;3.10;99.90;;;;;;5090889;28;20044;-80
2022/05/03 03:03:31;;;;;;;5.45;3.80;;;3.10;99.90;;;;;;5064699;28;20057;-80
2022/05/03 03:05:59;;;;;;;6.60;4.05;;;3.20;99.90;;;;;;5080071;28;20081;-79
2022/05/03 03:08:31;;;;;;;7.82;4.50;;;3.20;99.90;;;;;;5062270;28;20045;-79
2022/05/03 03:11:05;;;;;;;6.18;3.80;;;3.30;99.90;;;;;;5082214;28;20047;-79
2022/05/03 03:14:07;;;;;;;8.50;4.55;;;3.30;99.90;;;;;;5075626;28;20048;-79
2022/05/03 03:16:40;;;;;;;6.18;4.00;;;3.30;99.90;;;;;;5096972;28;20054;-80
2022/05/03 03:19:36;;;;;;;6.72;4.13;;;4.20;99.90;;;;;;5075938;28;20044;-79
2022/05/03 03:22:02;;;;;;;8.38;5.10;;;3.40;99.90;;;;;;5089439;28;20051;-80
2022/05/03 03:24:31;;;;;;;6.82;4.72;;;3.40;99.90;;;;;;5094022;28;20048;-79
2022/05/03 03:27:00;;;;;;;5.70;3.88;;;3.40;99.90;;;;;;5077275;28;20049;-80
2022/05/03 03:29:29;;;;;;;9.18;4.13;;;3.30;99.90;;;;;;5055330;28;20041;-80
2022/05/03 03:31:58;;;;;;;5.28;3.67;;;3.20;99.90;;;;;;5064011;28;20036;-80
2022/05/03 03:34:25;;;;;;;6.82;4.30;;;3.10;99.90;;;;;;5057717;28;20047;-80
2022/05/03 03:37:01;;;;;;;5.43;3.50;;;3.00;99.90;;;;;;5080362;28;20080;-80
2022/05/03 03:39:31;;;;;;;9.50;4.10;;;3.30;99.90;;;;;;5080358;28;20052;-79
2022/05/03 03:42:07;;;;;;;6.18;3.70;;;2.90;99.90;;;;;;5082450;28;20088;-78
2022/05/03 03:44:33;;;;;;;6.55;4.13;;;2.90;99.90;;;;;;5088590;28;20044;-78
2022/05/03 03:47:00;;;;;;;7.85;3.67;;;3.00;99.90;;;;;;5078542;28;20872;-79
2022/05/03 03:49:27;;;;;;;6.53;3.95;;;3.30;99.90;;;;;;5057104;28;20052;-79
2022/05/03 03:51:54;;;;;;;8.68;5.32;;;3.10;99.90;;;;;;5077944;28;20044;-79
2022/05/03 03:54:21;;;;;;;9.15;5.85;;;3.20;99.90;;;;;;5065053;28;20076;-79
2022/05/03 03:56:48;;;;;;;7.40;5.25;;;3.30;99.90;;;;;;5069672;28;20074;-79
2022/05/03 03:59:14;;;;;;;11.80;5.80;;;3.40;99.90;;;;;;5077826;28;20040;-78
2022/05/03 04:01:40;;;;;;;11.45;6.20;;;3.50;99.90;;;;;;5082395;28;20052;-79
2022/05/03 04:04:08;;;;;;;10.95;5.85;;;4.10;99.90;;;;;;5053933;28;20039;-80
2022/05/03 04:06:35;;;;;;;7.72;5.13;;;3.60;99.90;;;;;;5092611;28;20037;-80
2022/05/03 04:09:01;;;;;;;9.85;5.68;;;3.60;99.90;;;;;;5077601;28;20052;-79
2022/05/03 04:11:27;;;;;;;9.07;6.47;;;3.90;99.90;;;;;;5041428;28;20056;-79
2022/05/03 04:13:53;;;;;;;7.88;4.93;;;3.60;99.90;;;;;;5080215;28;20048;-79
2022/05/03 04:16:19;;;;;;;9.13;4.90;;;3.60;99.90;;;;;;5068508;28;20134;-79
2022/05/03 04:18:45;;;;;;;10.18;5.30;;;3.90;99.90;;;;;;5039256;28;20132;-79
2022/05/03 04:21:13;;;;;;;9.52;5.07;;;3.50;99.90;;;;;;5081437;28;20056;-78
2022/05/03 04:23:39;;;;;;;9.38;5.53;;;3.50;99.90;;;;;;5051222;28;20065;-79
2022/05/03 04:26:04;;;;;;;9.07;5.13;;;4.20;99.90;;;;;;5089306;28;20076;-79
2022/05/03 04:28:31;;;;;;;10.32;5.72;;;4.30;99.90;;;;;;5087573;28;20033;-79
2022/05/03 04:30:57;;;;;;;8.70;5.40;;;3.60;99.90;;;;;;5078883;28;20097;-80
2022/05/03 04:33:22;;;;;;;8.95;5.40;;;3.70;99.90;;;;;;5087856;28;20434;-81
2022/05/03 04:35:48;;;;;;;10.25;5.50;;;3.60;99.90;;;;;;5082802;28;20105;-81
2022/05/03 04:38:14;;;;;;;12.43;5.82;;;3.80;99.90;;;;;;5086162;28;20059;-80
2022/05/03 04:40:39;;;;;;;8.10;5.30;;;3.70;99.90;;;;;;5065014;28;20505;-80
2022/05/03 04:43:05;;;;;;;9.88;5.13;;;3.70;99.90;;;;;;5080461;28;20036;-80
2022/05/03 04:45:31;;;;;;;8.50;4.80;;;3.70;99.90;;;;;;5054736;28;20039;-80
2022/05/03 04:47:56;;;;;;;8.35;5.45;;;3.70;99.90;;;;;;5083256;28;20048;-80
2022/05/03 04:50:22;;;;;;;7.95;5.38;;;3.60;99.90;;;;;;5084131;28;20040;-80
2022/05/03 04:52:48;;;;;;;8.75;5.25;;;3.90;99.90;;;;;;5059624;28;20049;-80
2022/05/03 04:55:14;;;;;;;9.32;5.45;;;3.80;99.90;;;;;;5087517;28;20056;-80
2022/05/03 04:57:40;;;;;;;8.70;5.28;;;3.80;99.90;;;;;;5080302;28;20157;-80
2022/05/03 05:00:06;;;;;;;8.35;5.05;;;4.00;99.90;;;;;;5068965;28;20048;-79
2022/05/03 05:02:32;;;;;;;10.48;6.00;;;4.10;99.90;;;;;;5066256;28;20043;-80
2022/05/03 05:04:58;;;;;;;10.88;7.10;;;4.20;99.90;;;;;;5088808;28;20053;-80
2022/05/03 05:07:23;;;;;;;10.68;6.40;;;4.30;99.90;;;;;;5048212;28;20066;-79
2022/05/03 05:12:34;;;;;;;9.43;6.32;;;4.60;99.90;;;;;;5074327;28;20049;-79
2022/05/03 05:14:59;;;;;;;10.65;6.40;;;4.80;99.90;;;;;;5063913;28;20094;-79
2022/05/03 05:17:25;;;;;;;10.43;6.68;;;5.00;99.90;;;;;;5080437;28;20063;-78
2022/05/03 05:19:51;;;;;;;10.05;6.80;;;5.20;99.90;;;;;;5050357;28;20542;-79
2022/05/03 05:22:16;;;;;;;11.98;7.88;;;5.40;99.90;;;;;;5059596;28;20057;-80
2022/05/03 05:24:42;;;;;;;12.75;7.25;;;5.60;99.90;;;;;;5053239;28;20036;-80
2022/05/03 05:27:08;;;;;;;12.52;7.43;;;5.80;99.90;;;;;;5061061;28;20059;-80
2022/05/03 05:29:34;;;;;;;11.18;7.03;;;5.90;99.90;;;;;;5088580;28;20865;-79
2022/05/03 05:31:59;;;;;;;15.55;8.63;;;6.10;99.90;;;;;;5091843;28;20048;-80
2022/05/03 05:34:25;;;;;;;11.13;7.20;;;6.20;99.90;;;;;;5097385;28;20090;-80
2022/05/03 05:36:51;;;;;;;14.82;7.90;;;6.40;99.90;;;;;;5052297;28;20037;-79
2022/05/03 05:39:16;;;;;;;15.15;9.10;;;6.50;99.90;;;;;;5079261;28;20082;-80
2022/05/03 05:41:42;;;;;;;14.40;8.85;;;6.70;99.90;;;;;;5079464;28;20047;-81
2022/05/03 05:44:10;;;;;;;15.68;9.35;;;6.80;99.90;;;;;;5075413;28;20069;-80
2022/05/03 05:46:36;;;;;;;21.55;11.57;;;6.90;99.90;;;;;;5083908;28;20040;-81
2022/05/03 05:49:01;;;;;;;18.73;10.65;;;7.00;99.90;;;;;;5051877;28;20051;-81
2022/05/03 05:51:27;;;;;;;15.90;10.23;;;7.30;99.90;;;;;;5063113;28;20044;-79
2022/05/03 05:53:53;;;;;;;17.25;11.05;;;7.30;99.90;;;;;;5062338;28;20053;-80
2022/05/03 05:56:18;;;;;;;17.73;11.65;;;7.40;99.90;;;;;;5097587;28;20044;-80
2022/05/03 05:58:44;;;;;;;17.88;11.77;;;7.60;99.90;;;;;;5063042;28;20100;-79
2022/05/03 06:01:10;;;;;;;21.45;12.88;;;7.80;99.90;;;;;;5073967;28;20373;-80
2022/05/03 06:03:36;;;;;;;21.63;12.27;;;7.80;99.90;;;;;;5062580;28;20044;-79
2022/05/03 06:06:02;;;;;;;23.90;14.10;;;7.90;99.90;;;;;;5052102;28;20044;-78
2022/05/03 06:08:28;;;;;;;25.45;14.05;;;8.10;99.90;;;;;;5089539;28;20122;-80
2022/05/03 06:10:57;;;;;;;22.33;12.98;;;8.30;99.90;;;;;;5071838;28;20501;-80
2022/05/03 06:13:23;;;;;;;22.65;13.95;;;8.40;99.90;;;;;;5063015;28;20116;-79
2022/05/03 06:15:50;;;;;;;26.02;16.33;;;8.60;99.90;;;;;;5089733;28;20080;-80
2022/05/03 06:18:16;;;;;;;25.50;16.27;;;8.70;99.90;;;;;;5071077;28;20071;-79
2022/05/03 06:20:42;;;;;;;27.92;16.58;;;8.80;99.90;;;;;;5062025;28;20044;-79
2022/05/03 06:23:08;;;;;;;26.02;15.85;;;9.00;99.90;;;;;;5060455;28;20301;-79
2022/05/03 06:25:33;;;;;;;28.30;16.88;;;9.10;99.90;;;;;;5064408;28;20040;-80
2022/05/03 06:27:59;;;;;;;28.98;17.15;;;9.20;99.90;;;;;;5082216;28;20048;-81
2022/05/03 06:30:25;;;;;;;30.17;17.75;;;9.30;99.90;;;;;;5081707;28;20037;-79
2022/05/03 06:32:51;;;;;;;28.17;15.63;;;9.40;99.90;;;;;;5078457;28;20059;-81
2022/05/03 06:35:17;;;;;;;30.98;19.27;;;9.40;99.90;;;;;;5076579;28;20048;-80
2022/05/03 06:37:43;;;;;;;31.83;18.63;;;9.50;99.90;;;;;;5046306;28;20063;-79
2022/05/03 06:40:10;;;;;;;27.27;16.98;;;9.60;99.90;;;;;;5071553;28;20284;-79
2022/05/03 06:42:41;;;;;;;29.98;17.48;;;9.60;99.90;;;;;;5078623;28;20116;-79
2022/05/03 06:45:08;;;;;;;30.70;17.95;;;9.70;99.90;;;;;;5060928;28;20048;-79
2022/05/03 06:47:34;;;;;;;29.63;17.65;;;9.80;99.90;;;;;;5061801;28;20067;-79
2022/05/03 06:50:00;;;;;;;27.00;17.50;;;9.80;99.90;;;;;;5081013;28;20051;-79
2022/05/03 06:52:27;;;;;;;29.83;17.77;;;9.90;99.90;;;;;;5085875;28;20036;-79
2022/05/03 06:54:53;;;;;;;30.02;18.40;;;9.90;99.90;;;;;;5073001;28;20486;-79
2022/05/03 06:57:19;;;;;;;31.00;18.63;;;10.00;99.90;;;;;;5068729;28;20047;-79
2022/05/03 06:59:45;;;;;;;28.92;17.33;;;10.10;99.90;;;;;;5063960;28;20495;-80
2022/05/03 07:02:11;;;;;;;28.70;17.30;;;10.10;99.90;;;;;;5079933;28;20053;-80
2022/05/03 07:04:37;;;;;;;28.27;17.00;;;10.20;99.90;;;;;;5078022;28;20064;-79
2022/05/03 07:07:03;;;;;;;28.02;16.65;;;10.30;99.90;;;;;;5063452;28;20045;-79
2022/05/03 07:09:28;;;;;;;32.78;18.92;;;10.30;99.90;;;;;;5090694;28;20132;-80
2022/05/03 07:11:54;;;;;;;29.75;17.05;;;10.40;99.90;;;;;;5061019;28;20045;-80
2022/05/03 07:14:22;;;;;;;30.70;17.42;;;10.50;99.90;;;;;;5073251;28;20080;-80
2022/05/03 07:16:47;;;;;;;31.20;16.08;;;10.50;99.90;;;;;;5076043;28;20045;-77
2022/05/03 07:24:41;;;;;;;30.63;17.13;;;10.90;99.90;;;;;;5083207;28;20044;-77
2022/05/03 07:27:07;;;;;;;47.17;18.90;;;10.90;99.90;;;;;;5062188;28;20048;-77
2022/05/03 07:29:33;;;;;;;37.47;16.20;;;10.90;99.90;;;;;;5046665;28;20082;-77
2022/05/03 07:31:58;;;;;;;32.38;16.13;;;10.90;99.90;;;;;;5065043;28;20041;-77
2022/05/03 07:34:24;;;;;;;28.67;16.38;;;11.10;99.90;;;;;;5096314;28;20073;-76
2022/05/03 07:36:50;;;;;;;27.58;16.17;;;11.10;99.90;;;;;;5093423;28;20109;-77
2022/05/03 07:39:15;;;;;;;26.45;14.85;;;11.30;99.90;;;;;;5051366;28;20036;-77
2022/05/03 07:41:43;;;;;;;41.25;19.08;;;11.30;99.90;;;;;;5088382;28;20040;-76
2022/05/03 07:44:09;;;;;;;32.45;17.73;;;11.30;99.90;;;;;;5075724;28;20260;-76
2022/05/03 07:46:35;;;;;;;37.65;18.48;;;11.30;99.90;;;;;;5078103;28;20049;-75
2022/05/03 07:49:00;;;;;;;38.95;18.95;;;11.20;99.90;;;;;;5059188;28;20053;-75
2022/05/03 07:51:26;;;;;;;38.75;19.35;;;11.20;99.90;;;;;;5046514;28;20037;-77
2022/05/03 07:53:52;;;;;;;37.40;19.23;;;11.10;99.90;;;;;;5063841;28;20044;-75
2022/05/03 07:56:18;;;;;;;33.60;17.10;;;11.10;99.90;;;;;;5024495;28;20045;-77
2022/05/03 07:58:44;;;;;;;37.17;20.00;;;11.10;99.90;;;;;;5020844;28;20048;-75
2022/05/03 08:01:09;;;;;;;36.88;19.23;;;11.00;99.90;;;;;;5067259;28;20507;-76
2022/05/03 08:03:35;;;;;;;37.42;18.90;;;11.00;99.90;;;;;;5060994;28;20043;-78
2022/05/03 08:06:02;;;;;;;39.40;18.42;;;11.00;99.90;;;;;;5066425;28;20473;-78
2022/05/03 08:08:29;;;;;;;34.67;18.73;;;11.00;99.90;;;;;;5068840;28;20059;-78
2022/05/03 08:10:55;;;;;;;38.15;17.55;;;10.90;99.90;;;;;;5052742;28;20048;-78
2022/05/03 08:13:21;;;;;;;31.63;17.85;;;10.80;99.90;;;;;;5081210;28;20086;-76
2022/05/03 08:15:47;;;;;;;29.45;17.08;;;10.70;99.90;;;;;;5056200;28;20049;-76
2022/05/03 08:18:13;;;;;;;29.13;16.13;;;10.70;99.90;;;;;;5064793;28;20048;-77
2022/05/03 08:20:39;;;;;;;27.60;15.10;;;10.60;99.90;;;;;;5049524;28;20044;-77
2022/05/03 08:23:05;;;;;;;27.52;15.90;;;10.60;99.90;;;;;;5074415;28;20040;-76
2022/05/03 08:25:32;;;;;;;27.48;15.40;;;10.50;99.90;;;;;;5068231;28;20114;-76
2022/05/03 08:27:58;;;;;;;27.35;14.90;;;10.50;99.90;;;;;;5062955;28;20052;-78
2022/05/03 08:30:24;;;;;;;25.98;15.77;;;10.50;99.90;;;;;;5081037;28;20079;-77
2022/05/03 08:32:49;;;;;;;24.48;15.00;;;10.40;99.90;;;;;;5080815;28;20154;-78
2022/05/03 08:35:15;;;;;;;24.75;14.20;;;10.40;99.90;;;;;;5064742;28;20109;-77
2022/05/03 08:43:09;;;;;;;18.50;12.23;;;10.40;99.90;;;;;;5070368;28;20048;-78
2022/05/03 08:45:35;;;;;;;22.55;11.82;;;10.50;99.90;;;;;;5031333;28;20060;-76
2022/05/03 08:48:01;;;;;;;19.77;10.25;;;10.50;99.90;;;;;;5082108;28;20575;-76
2022/05/03 08:50:29;;;;;;;15.57;7.82;;;10.60;99.90;;;;;;5066435;28;20082;-76
2022/05/03 08:52:59;;;;;;;11.55;7.10;;;10.60;99.90;;;;;;5092010;28;20059;-78
2022/05/03 08:55:25;;;;;;;12.68;7.50;;;10.60;99.90;;;;;;5084122;28;20036;-78
2022/05/03 08:57:51;;;;;;;8.75;5.18;;;10.60;99.90;;;;;;5095998;28;20044;-76
2022/05/03 09:00:18;;;;;;;9.32;5.47;;;10.60;99.90;;;;;;5095126;28;20051;-77
2022/05/03 09:02:46;;;;;;;8.30;4.40;;;10.60;99.90;;;;;;5050985;28;20495;-77
2022/05/03 09:05:12;;;;;;;8.25;4.50;;;10.60;99.90;;;;;;5079927;28;20063;-77
2022/05/03 09:07:44;;;;;;;8.70;4.35;;;10.70;99.90;;;;;;5084940;28;20087;-76
2022/05/03 09:10:34;;;;;;;10.18;4.78;;;10.70;99.90;;;;;;5058335;28;20045;-76
2022/05/03 09:13:20;;;;;;;7.45;4.10;;;10.70;99.90;;;;;;5076762;28;20044;-76
2022/05/03 09:15:51;;;;;;;10.60;4.95;;;10.80;99.90;;;;;;5078907;28;20335;-77
2022/05/03 09:18:28;;;;;;;9.25;4.30;;;10.80;99.90;;;;;;5073203;28;20579;-78
2022/05/03 09:23:51;;;;;;;10.10;4.60;;;11.00;99.90;;;;;;5095947;28;20098;-78
2022/05/03 09:26:21;;;;;;;8.45;4.00;;;11.10;99.90;;;;;;5075045;28;20132;-79
2022/05/03 09:28:48;;;;;;;7.30;3.80;;;11.10;99.90;;;;;;5088384;28;20060;-79
2022/05/03 09:31:26;;;;;;;8.15;4.80;;;11.20;99.90;;;;;;5064470;28;20080;-77
2022/05/03 09:33:52;;;;;;;11.02;4.40;;;11.20;99.90;;;;;;5080087;28;20045;-77
2022/05/03 09:36:17;;;;;;;8.65;4.45;;;11.30;99.90;;;;;;5090732;28;20051;-78
2022/05/03 09:38:47;;;;;;;7.57;4.20;;;11.20;99.90;;;;;;5074166;28;20122;-76
2022/05/03 09:41:17;;;;;;;8.45;4.90;;;11.20;99.90;;;;;;5083200;28;20551;-78
2022/05/03 09:44:06;;;;;;;13.60;5.57;;;11.10;99.90;;;;;;5077881;28;20051;-78
2022/05/03 09:46:52;;;;;;;9.70;4.90;;;11.10;99.90;;;;;;5081929;28;20048;-78
2022/05/03 09:49:20;;;;;;;9.90;5.30;;;11.20;99.90;;;;;;5083019;28;20401;-78
2022/05/03 09:51:48;;;;;;;7.97;4.72;;;11.20;99.90;;;;;;5076174;28;20052;-76
2022/05/03 09:54:16;;;;;;;13.38;5.65;;;11.10;99.90;;;;;;5095868;28;20060;-80
2022/05/03 09:56:48;;;;;;;9.80;4.53;;;11.10;99.90;;;;;;5078622;28;20051;-78
2022/05/03 09:59:14;;;;;;;9.93;4.90;;;11.10;99.90;;;;;;5096199;28;20319;-77
2022/05/03 10:01:41;;;;;;;13.73;5.05;;;11.10;99.90;;;;;;5055014;28;20037;-77
2022/05/03 10:04:07;;;;;;;10.90;4.85;;;11.20;99.90;;;;;;5064387;28;20047;-77
2022/05/03 10:06:34;;;;;;;13.18;4.75;;;11.30;99.90;;;;;;5083745;28;20111;-77
2022/05/03 10:09:00;;;;;;;10.27;4.85;;;11.40;99.90;;;;;;5082997;28;20052;-78
2022/05/03 10:11:27;;;;;;;10.00;4.78;;;11.50;99.90;;;;;;5078623;28;20100;-78
2022/05/03 10:13:54;;;;;;;11.50;4.70;;;11.60;99.90;;;;;;5059098;28;20443;-78
2022/05/03 10:21:57;;;;;;;12.97;5.40;;;11.70;99.90;;;;;;5066661;28;20076;-76
2022/05/03 10:24:24;;;;;;;12.32;5.03;;;11.70;99.90;;;;;;5085462;28;20279;-77
2022/05/03 10:27:01;;;;;;;12.50;4.95;;;11.70;99.90;;;;;;5076968;28;20059;-78
2022/05/03 10:29:29;;;;;;;10.43;4.35;;;11.70;99.90;;;;;;5084908;28;20052;-78
2022/05/03 10:31:54;;;;;;;10.77;5.05;;;11.70;99.90;;;;;;5076643;28;20090;-77
2022/05/03 10:34:39;;;;;;;9.77;4.85;;;11.70;99.90;;;;;;5078258;28;20048;-77
2022/05/03 10:37:12;;;;;;;11.30;5.13;;;11.70;99.90;;;;;;5086387;28;20154;-77
2022/05/03 10:39:56;;;;;;;8.35;4.63;;;11.70;99.90;;;;;;5060082;28;20036;-76
2022/05/03 10:42:29;;;;;;;13.27;5.07;;;11.80;99.90;;;;;;5078215;28;20163;-76
2022/05/03 10:45:12;;;;;;;10.75;4.78;;;11.80;99.90;;;;;;5066353;28;20420;-81
2022/05/03 10:47:53;;;;;;;11.60;4.55;;;11.90;99.90;;;;;;5091013;28;20131;-80
2022/05/03 10:50:22;;;;;;;15.68;4.65;;;11.90;99.90;;;;;;5073667;28;20051;-76
2022/05/03 10:52:59;;;;;;;12.00;4.50;;;12.10;99.90;;;;;;5056232;28;20040;-77
2022/05/03 10:55:32;;;;;;;10.13;4.53;;;12.20;99.90;;;;;;5056739;28;20098;-77
2022/05/03 10:58:17;;;;;;;8.65;4.45;;;12.20;99.90;;;;;;5054521;28;20583;-75
2022/05/03 11:01:01;;;;;;;12.20;4.50;;;12.30;99.90;;;;;;5076928;28;20425;-77
2022/05/03 11:03:27;;;;;;;11.15;5.05;;;12.40;99.90;;;;;;5092073;28;20043;-77
2022/05/03 11:06:25;;;;;;;11.93;3.67;;;12.40;99.90;;;;;;5055198;28;20040;-78
2022/05/03 11:11:37;;;;;;;8.15;4.00;;;12.60;99.90;;;;;;5075568;28;20048;-78
2022/05/03 11:14:15;;;;;;;7.10;4.00;;;12.60;99.90;;;;;;5089878;28;20064;-76
2022/05/03 11:16:42;;;;;;;11.10;3.95;;;12.60;99.90;;;;;;5069492;28;20044;-74
2022/05/03 11:19:17;;;;;;;11.48;4.20;;;12.60;99.90;;;;;;5084967;28;20053;-75
2022/05/03 11:21:45;;;;;;;9.38;3.85;;;12.60;99.90;;;;;;5080403;28;20090;-77
2022/05/03 11:24:17;;;;;;;10.25;4.65;;;12.60;99.90;;;;;;5098080;28;20040;-75
2022/05/03 11:26:44;;;;;;;7.75;3.30;;;12.70;99.90;;;;;;5066023;28;20400;-77
2022/05/03 11:29:12;;;;;;;6.28;3.15;;;12.70;99.90;;;;;;5059084;28;20107;-74
2022/05/03 11:31:38;;;;;;;9.88;3.60;;;12.80;99.90;;;;;;5070452;28;20048;-76
2022/05/03 11:34:06;;;;;;;10.40;3.50;;;12.90;99.90;;;;;;5078107;28;20076;-77
2022/05/03 11:36:33;;;;;;;9.18;3.40;;;12.80;99.90;;;;;;5080050;28;20036;-78
2022/05/03 11:39:00;;;;;;;7.22;3.80;;;12.90;99.90;;;;;;5052000;28;20102;-78
2022/05/03 11:41:28;;;;;;;9.25;3.75;;;12.90;99.90;;;;;;5064736;28;20044;-74
2022/05/03 11:43:55;;;;;;;7.53;3.70;;;12.90;99.90;;;;;;5086473;28;20037;-76
2022/05/03 11:46:22;;;;;;;7.70;3.28;;;13.10;99.90;;;;;;5099817;28;20043;-76
2022/05/03 11:49:01;;;;;;;7.85;3.70;;;13.20;99.90;;;;;;5084857;28;20131;-76
2022/05/03 11:57:12;;;;;;;5.55;3.00;;;13.20;99.90;;;;;;5079373;28;20055;-78
2022/05/03 11:59:42;;;;;;;8.80;3.33;;;13.20;99.90;;;;;;5084327;28;20110;-77
2022/05/03 12:02:17;;;;;;;10.20;3.38;;;13.20;99.90;;;;;;5094588;28;20074;-76
2022/05/03 12:05:05;;;;;;;7.00;3.03;;;13.20;99.90;;;;;;5069212;28;20043;-77
2022/05/03 12:07:42;;;;;;;8.35;3.60;;;13.20;99.90;;;;;;5082043;28;20060;-76
2022/05/03 12:10:31;;;;;;;8.98;2.92;;;13.30;99.90;;;;;;5053868;28;20519;-77
2022/05/03 12:13:17;;;;;;;8.93;3.45;;;13.40;99.90;;;;;;5052217;28;20048;-77
2022/05/03 12:15:43;;;;;;;7.43;3.10;;;13.40;99.90;;;;;;5090541;28;20104;-77
2022/05/03 12:18:20;;;;;;;10.90;2.97;;;13.30;99.90;;;;;;5068373;28;20082;-78
2022/05/03 12:21:03;;;;;;;8.90;2.92;;;13.30;99.90;;;;;;5090891;28;20052;-77
2022/05/03 12:23:35;;;;;;;5.30;2.53;;;13.30;99.90;;;;;;5058594;28;20104;-77
2022/05/03 12:26:26;;;;;;;8.32;3.10;;;13.30;99.90;;;;;;5087937;28;20059;-76
2022/05/03 12:28:57;;;;;;;8.60;2.92;;;13.30;99.90;;;;;;5064979;28;20037;-77
2022/05/03 12:31:30;;;;;;;16.83;3.13;;;13.30;99.90;;;;;;5070433;28;20079;-77
2022/05/03 12:33:58;;;;;;;5.75;2.53;;;13.30;99.90;;;;;;5081181;28;20072;-77
2022/05/03 12:36:38;;;;;;;5.50;2.47;;;13.30;99.90;;;;;;5085381;28;20089;-75
2022/05/03 12:39:18;;;;;;;6.93;2.63;;;13.30;99.90;;;;;;5078910;28;20048;-76
2022/05/03 12:41:53;;;;;;;6.40;2.83;;;13.30;99.90;;;;;;5058326;28;20044;-75
2022/05/03 12:44:21;;;;;;;5.25;3.00;;;13.30;99.90;;;;;;5087174;28;20055;-77
2022/05/03 12:46:49;;;;;;;10.93;3.40;;;13.30;99.90;;;;;;5094800;28;20122;-77
2022/05/03 12:49:15;;;;;;;8.57;2.70;;;13.40;99.90;;;;;;5086324;28;20056;-77
2022/05/03 12:51:47;;;;;;;8.02;2.78;;;13.40;99.90;;;;;;5082630;28;20271;-77
2022/05/03 12:54:14;;;;;;;6.60;2.60;;;13.60;99.90;;;;;;5065993;28;20067;-76
2022/05/03 12:59:26;;;;;;;6.00;2.50;;;13.90;99.90;;;;;;5080871;28;20044;-76
2022/05/03 13:01:57;;;;;;;6.78;2.60;;;14.20;99.90;;;;;;5076439;28;20079;-76
2022/05/03 13:04:28;;;;;;;5.95;3.10;;;14.30;99.90;;;;;;5082302;28;20525;-77
2022/05/03 13:06:54;;;;;;;4.60;2.67;;;14.40;99.90;;;;;;5078997;28;20049;-77
2022/05/03 13:09:21;;;;;;;7.60;2.60;;;14.50;99.90;;;;;;5072407;28;20048;-73
2022/05/03 13:11:46;;;;;;;7.13;2.80;;;14.60;99.90;;;;;;5043703;28;20040;-76
2022/05/03 13:14:13;;;;;;;5.38;2.90;;;14.60;99.90;;;;;;5058918;28;20063;-76
2022/05/03 13:16:40;;;;;;;4.72;2.10;;;14.60;99.90;;;;;;5090239;28;20056;-77
2022/05/03 13:19:06;;;;;;;7.28;2.03;;;14.60;99.90;;;;;;5082086;28;20040;-76
2022/05/03 13:21:36;;;;;;;4.82;2.00;;;14.60;99.90;;;;;;5075383;28;20429;-76
2022/05/03 13:24:06;;;;;;;6.70;2.40;;;14.70;99.90;;;;;;5079387;28;20072;-78
2022/05/03 13:26:33;;;;;;;5.72;2.20;;;14.80;99.90;;;;;;5077168;28;20138;-77
2022/05/03 13:29:01;;;;;;;6.15;2.33;;;14.70;99.90;;;;;;5090696;28;20047;-76
2022/05/03 13:31:27;;;;;;;7.15;2.20;;;14.70;99.90;;;;;;5082664;28;20040;-78
2022/05/03 13:33:53;;;;;;;4.93;1.95;;;14.70;99.90;;;;;;5099444;28;20075;-75
2022/05/03 13:41:47;;;;;;;6.68;2.45;;;14.80;99.90;;;;;;5078988;28;20052;-78
2022/05/03 13:44:13;;;;;;;6.00;2.22;;;15.00;99.90;;;;;;5063069;28;20058;-77
2022/05/03 13:46:39;;;;;;;4.72;1.90;;;14.90;99.90;;;;;;5064311;28;20083;-76
2022/05/03 13:49:05;;;;;;;5.15;2.40;;;14.80;99.90;;;;;;5083446;28;20048;-77